Time;durP1;ratioP1;P1;durP2;ratioP2;P2;SDS_P1;SDS_P2;PMS_P1;PMS_P2;Temp;Humidity;BMP_temperature;BMP_pressure;BME280_temperature;BME280_humidity;BME280_pressure;Samples;Min_cycle;Max_cycle;Signal;HPM_P1;HPM_P2
2021/05/17 00:01:34;;;;;;;4.32;3.15;;;;;;;;;;4423915;32;20211;-70
2021/05/17 00:04:02;;;;;;;4.90;3.50;;;;;;;;;;4421457;32;20619;-72
2021/05/17 00:06:28;;;;;;;6.30;3.97;;;;;;;;;;4420159;32;20138;-71
2021/05/17 00:08:53;;;;;;;5.65;4.05;;;;;;;;;;4420245;32;20212;-71
2021/05/17 00:11:18;;;;;;;5.80;4.15;;;;;;;;;;4406815;32;20161;-71
2021/05/17 00:13:44;;;;;;;6.20;3.87;;;;;;;;;;4420251;32;20564;-70
2021/05/17 00:16:09;;;;;;;5.47;4.00;;;;;;;;;;4419616;32;20134;-71
2021/05/17 00:18:35;;;;;;;5.75;3.30;;;;;;;;;;4420845;32;20450;-71
2021/05/17 00:21:00;;;;;;;4.85;3.55;;;;;;;;;;4405534;32;20189;-71
2021/05/17 00:23:25;;;;;;;5.20;3.50;;;;;;;;;;4421085;32;20138;-71
2021/05/17 00:25:50;;;;;;;4.62;3.12;;;;;;;;;;4421385;32;20159;-71
2021/05/17 00:28:16;;;;;;;6.35;3.58;;;;;;;;;;4421096;32;20228;-70
2021/05/17 00:30:41;;;;;;;5.97;3.12;;;;;;;;;;4405963;32;20170;-70
2021/05/17 00:33:06;;;;;;;4.97;2.70;;;;;;;;;;4420943;32;20157;-70
2021/05/17 00:35:32;;;;;;;4.95;2.80;;;;;;;;;;4420102;32;20554;-70
2021/05/17 00:37:57;;;;;;;4.20;2.47;;;;;;;;;;4421242;32;20203;-70
2021/05/17 00:40:23;;;;;;;5.25;2.75;;;;;;;;;;4420321;32;20261;-70
2021/05/17 00:42:48;;;;;;;4.15;2.95;;;;;;;;;;4420121;32;20134;-69
2021/05/17 00:45:15;;;;;;;2.40;2.20;;;;;;;;;;4418943;32;20298;-69
2021/05/17 00:47:41;;;;;;;5.87;2.80;;;;;;;;;;4420304;32;20149;-70
2021/05/17 00:50:07;;;;;;;3.80;2.62;;;;;;;;;;4418509;32;20166;-70
2021/05/17 00:52:33;;;;;;;4.62;3.05;;;;;;;;;;4405389;32;20173;-70
2021/05/17 00:54:58;;;;;;;3.87;2.92;;;;;;;;;;4420301;32;20511;-70
2021/05/17 00:57:24;;;;;;;3.87;2.58;;;;;;;;;;4404618;32;20188;-70
2021/05/17 00:59:49;;;;;;;4.67;3.20;;;;;;;;;;4431329;32;20185;-69
2021/05/17 01:02:14;;;;;;;3.92;2.97;;;;;;;;;;4435885;32;20469;-70
2021/05/17 01:04:39;;;;;;;7.90;3.78;;;;;;;;;;4433697;32;20208;-70
2021/05/17 01:07:05;;;;;;;6.10;4.30;;;;;;;;;;4434984;32;20300;-70
2021/05/17 01:09:31;;;;;;;5.15;3.67;;;;;;;;;;4435112;32;20191;-69
2021/05/17 01:11:58;;;;;;;7.00;4.60;;;;;;;;;;4433947;32;20399;-70
2021/05/17 01:14:24;;;;;;;6.20;4.30;;;;;;;;;;4434880;32;20224;-70
2021/05/17 01:16:50;;;;;;;8.95;5.22;;;;;;;;;;4435639;32;20190;-70
2021/05/17 01:19:20;;;;;;;8.85;5.57;;;;;;;;;;4435890;32;20141;-71
2021/05/17 01:21:50;;;;;;;8.63;5.37;;;;;;;;;;4434392;32;20196;-70
2021/05/17 01:24:16;;;;;;;9.63;5.90;;;;;;;;;;4434469;32;20431;-70
2021/05/17 01:26:41;;;;;;;9.02;6.00;;;;;;;;;;4428220;32;20234;-70
2021/05/17 01:29:07;;;;;;;11.30;7.10;;;;;;;;;;4417966;32;20193;-70
2021/05/17 01:31:33;;;;;;;11.52;7.18;;;;;;;;;;4419572;32;20233;-69
2021/05/17 01:33:59;;;;;;;11.77;7.05;;;;;;;;;;4417939;32;20133;-70
2021/05/17 01:36:24;;;;;;;9.18;6.60;;;;;;;;;;4419134;32;20141;-70
2021/05/17 01:38:50;;;;;;;11.85;8.13;;;;;;;;;;4417257;32;20162;-70
2021/05/17 01:41:17;;;;;;;11.57;7.97;;;;;;;;;;4417111;32;20501;-70
2021/05/17 01:43:44;;;;;;;13.88;8.20;;;;;;;;;;4418027;32;20181;-70
2021/05/17 01:46:14;;;;;;;18.25;9.40;;;;;;;;;;4421795;32;20184;-70
2021/05/17 01:48:40;;;;;;;14.15;8.18;;;;;;;;;;4419882;32;20204;-70
2021/05/17 01:51:06;;;;;;;17.90;10.57;;;;;;;;;;4419578;32;20220;-70
2021/05/17 01:53:33;;;;;;;16.50;9.93;;;;;;;;;;4434494;32;20164;-70
2021/05/17 01:55:58;;;;;;;15.68;9.73;;;;;;;;;;4418281;32;20176;-70
2021/05/17 01:58:23;;;;;;;16.98;11.00;;;;;;;;;;4433107;32;20427;-70
2021/05/17 02:00:49;;;;;;;18.57;10.83;;;;;;;;;;4419626;32;20561;-70
2021/05/17 02:03:15;;;;;;;18.60;11.80;;;;;;;;;;4434226;32;20133;-70
2021/05/17 02:05:41;;;;;;;21.80;11.45;;;;;;;;;;4429680;32;20218;-70
2021/05/17 02:08:10;;;;;;;21.13;12.30;;;;;;;;;;4417574;32;20146;-70
2021/05/17 02:10:35;;;;;;;19.27;11.73;;;;;;;;;;4404631;32;20180;-69
2021/05/17 02:13:02;;;;;;;25.75;15.05;;;;;;;;;;4419633;32;20165;-70
2021/05/17 02:15:27;;;;;;;24.95;13.68;;;;;;;;;;4404240;32;20157;-71
2021/05/17 02:18:03;;;;;;;26.25;15.13;;;;;;;;;;4418903;32;20153;-72
2021/05/17 02:20:30;;;;;;;22.70;13.82;;;;;;;;;;4419187;32;20153;-70
2021/05/17 02:22:56;;;;;;;26.50;15.90;;;;;;;;;;4419083;32;20400;-72
2021/05/17 02:25:21;;;;;;;24.60;15.48;;;;;;;;;;4419148;32;20157;-70
2021/05/17 02:27:47;;;;;;;26.30;16.73;;;;;;;;;;4417070;32;20240;-70
2021/05/17 02:30:14;;;;;;;24.17;14.93;;;;;;;;;;4419091;32;20141;-71
2021/05/17 02:32:39;;;;;;;29.83;18.08;;;;;;;;;;4419028;32;20130;-71
2021/05/17 02:35:05;;;;;;;25.23;15.73;;;;;;;;;;4417327;32;20190;-71
2021/05/17 02:37:32;;;;;;;29.37;17.67;;;;;;;;;;4417554;32;20177;-70
2021/05/17 02:39:58;;;;;;;27.87;16.43;;;;;;;;;;4418595;32;20141;-70
2021/05/17 02:42:24;;;;;;;30.02;17.45;;;;;;;;;;4419755;32;20160;-70
2021/05/17 02:44:49;;;;;;;27.95;17.25;;;;;;;;;;4405464;32;20257;-71
2021/05/17 02:47:15;;;;;;;25.20;16.77;;;;;;;;;;4417994;32;20535;-70
2021/05/17 02:49:40;;;;;;;25.88;17.37;;;;;;;;;;4417722;32;20586;-71
2021/05/17 02:52:06;;;;;;;25.67;17.08;;;;;;;;;;4405675;32;20501;-71
2021/05/17 02:54:32;;;;;;;31.30;19.77;;;;;;;;;;4418132;32;20138;-70
2021/05/17 02:56:57;;;;;;;27.55;17.08;;;;;;;;;;4418881;32;20167;-70
2021/05/17 02:59:41;;;;;;;34.95;18.70;;;;;;;;;;4405451;32;20483;-70
2021/05/17 03:02:07;;;;;;;27.07;17.63;;;;;;;;;;4417902;32;20255;-71
2021/05/17 03:04:35;;;;;;;30.50;19.48;;;;;;;;;;4418391;32;20134;-70
2021/05/17 03:07:06;;;;;;;26.95;17.70;;;;;;;;;;4431326;32;20283;-71
2021/05/17 03:09:32;;;;;;;25.55;16.10;;;;;;;;;;4434637;32;20534;-71
2021/05/17 03:11:59;;;;;;;28.83;17.93;;;;;;;;;;4434638;32;20423;-71
2021/05/17 03:14:27;;;;;;;26.40;17.90;;;;;;;;;;4420703;32;20173;-70
2021/05/17 03:16:54;;;;;;;26.27;16.60;;;;;;;;;;4434994;32;20137;-71
2021/05/17 03:19:20;;;;;;;24.67;16.95;;;;;;;;;;4434383;32;20164;-70
2021/05/17 03:21:45;;;;;;;21.20;14.73;;;;;;;;;;4427830;32;20146;-71
2021/05/17 03:24:11;;;;;;;29.48;17.98;;;;;;;;;;4426480;32;20177;-71
2021/05/17 03:26:36;;;;;;;29.73;17.73;;;;;;;;;;4436086;32;20176;-71
2021/05/17 03:29:02;;;;;;;26.37;16.87;;;;;;;;;;4436281;32;20522;-71
2021/05/17 03:31:27;;;;;;;28.75;18.05;;;;;;;;;;4435942;32;20160;-70
2021/05/17 03:33:55;;;;;;;28.15;16.98;;;;;;;;;;4435520;32;20487;-70
2021/05/17 03:36:20;;;;;;;23.17;16.02;;;;;;;;;;4422823;32;20219;-71
2021/05/17 03:38:46;;;;;;;25.48;16.60;;;;;;;;;;4436923;32;20134;-70
2021/05/17 03:41:11;;;;;;;28.90;17.00;;;;;;;;;;4421486;32;20204;-71
2021/05/17 03:43:36;;;;;;;30.08;15.60;;;;;;;;;;4434233;32;20249;-70
2021/05/17 03:46:01;;;;;;;28.00;16.67;;;;;;;;;;4422333;32;20233;-70
2021/05/17 03:48:26;;;;;;;22.98;15.02;;;;;;;;;;4421622;32;20292;-70
2021/05/17 03:50:51;;;;;;;26.67;15.52;;;;;;;;;;4420043;32;20154;-70
2021/05/17 03:53:17;;;;;;;28.80;17.42;;;;;;;;;;4421526;32;20130;-69
2021/05/17 03:55:42;;;;;;;27.05;15.80;;;;;;;;;;4420954;32;20233;-69
2021/05/17 03:58:08;;;;;;;25.45;15.73;;;;;;;;;;4421306;32;20129;-70
2021/05/17 04:00:33;;;;;;;29.75;18.23;;;;;;;;;;4421454;32;20474;-69
2021/05/17 04:03:01;;;;;;;28.48;19.37;;;;;;;;;;4421836;32;20134;-70
2021/05/17 04:05:37;;;;;;;24.37;16.70;;;;;;;;;;4421634;32;20271;-69
2021/05/17 04:13:31;;;;;;;29.70;18.60;;;;;;;;;;4421809;32;20188;-70
2021/05/17 04:15:56;;;;;;;33.08;18.87;;;;;;;;;;4421879;32;20481;-69
2021/05/17 04:18:21;;;;;;;28.08;18.55;;;;;;;;;;4414350;32;20165;-70
2021/05/17 04:20:47;;;;;;;31.37;19.27;;;;;;;;;;4423136;32;20241;-70
2021/05/17 04:23:13;;;;;;;27.23;19.95;;;;;;;;;;4433264;32;20626;-69
2021/05/17 04:25:38;;;;;;;32.00;19.17;;;;;;;;;;4419864;32;20142;-69
2021/05/17 04:28:03;;;;;;;25.92;17.15;;;;;;;;;;4420590;32;20193;-69
2021/05/17 04:30:29;;;;;;;26.15;17.20;;;;;;;;;;4421067;32;20595;-68
2021/05/17 04:32:54;;;;;;;27.13;18.12;;;;;;;;;;4419864;32;20133;-69
2021/05/17 04:35:19;;;;;;;26.15;17.52;;;;;;;;;;4418457;32;20195;-69
2021/05/17 04:37:44;;;;;;;26.27;16.60;;;;;;;;;;4419784;32;20158;-69
2021/05/17 04:40:11;;;;;;;24.77;17.40;;;;;;;;;;4406244;32;20485;-70
2021/05/17 04:42:36;;;;;;;24.63;16.77;;;;;;;;;;4408982;32;20677;-69
2021/05/17 04:45:02;;;;;;;26.75;17.77;;;;;;;;;;4434823;32;20133;-69
2021/05/17 04:47:27;;;;;;;24.83;16.83;;;;;;;;;;4436603;32;20437;-69
2021/05/17 04:49:52;;;;;;;21.95;15.75;;;;;;;;;;4435304;32;20161;-69
2021/05/17 04:52:17;;;;;;;21.20;15.48;;;;;;;;;;4421948;32;20293;-68
2021/05/17 04:54:43;;;;;;;24.58;15.95;;;;;;;;;;4436277;32;20575;-69
2021/05/17 04:57:08;;;;;;;21.20;14.50;;;;;;;;;;4435677;32;20141;-69
2021/05/17 04:59:33;;;;;;;17.62;12.55;;;;;;;;;;4436568;32;20224;-69
2021/05/17 05:01:59;;;;;;;17.85;12.27;;;;;;;;;;4436272;32;20168;-68
2021/05/17 05:04:24;;;;;;;17.37;11.98;;;;;;;;;;4435667;32;20230;-69
2021/05/17 05:06:49;;;;;;;17.58;12.25;;;;;;;;;;4426505;32;20146;-68
2021/05/17 05:09:14;;;;;;;14.57;10.88;;;;;;;;;;4420310;32;20146;-68
2021/05/17 05:11:39;;;;;;;19.20;11.05;;;;;;;;;;4420078;32;20157;-69
2021/05/17 05:14:04;;;;;;;17.58;12.50;;;;;;;;;;4420155;32;20553;-68
2021/05/17 05:16:30;;;;;;;18.73;12.35;;;;;;;;;;4422448;32;20184;-69
2021/05/17 05:18:55;;;;;;;17.85;12.13;;;;;;;;;;4424657;32;20215;-70
2021/05/17 05:21:20;;;;;;;17.58;13.20;;;;;;;;;;4432380;32;20544;-69
2021/05/17 05:23:46;;;;;;;18.27;12.10;;;;;;;;;;4431027;32;20175;-69
2021/05/17 05:31:51;;;;;;;21.75;14.32;;;;;;;;;;4425853;32;20149;-69
2021/05/17 05:34:09;;;;;;;22.30;13.48;;;;;;;;;;4429442;32;20398;-70
2021/05/17 05:36:34;;;;;;;23.65;14.48;;;;;;;;;;4418732;32;20243;-70
2021/05/17 05:38:59;;;;;;;23.95;14.30;;;;;;;;;;4420021;32;20191;-70
2021/05/17 05:41:25;;;;;;;27.15;16.37;;;;;;;;;;4407209;32;20559;-70
2021/05/17 05:43:50;;;;;;;25.00;15.63;;;;;;;;;;4434277;32;20207;-69
2021/05/17 05:46:15;;;;;;;29.10;17.50;;;;;;;;;;4434483;32;20552;-69
2021/05/17 05:48:49;;;;;;;28.35;15.82;;;;;;;;;;4435003;32;20238;-71
2021/05/17 05:51:20;;;;;;;26.98;16.17;;;;;;;;;;4435385;32;20530;-70
2021/05/17 05:53:45;;;;;;;26.17;15.95;;;;;;;;;;4420895;32;20188;-69
2021/05/17 05:56:11;;;;;;;22.98;13.82;;;;;;;;;;4435448;32;20219;-69
2021/05/17 05:58:36;;;;;;;23.33;14.27;;;;;;;;;;4433987;32;20172;-71
2021/05/17 06:01:01;;;;;;;22.98;14.05;;;;;;;;;;4434877;32;20134;-70
2021/05/17 06:03:26;;;;;;;22.15;14.35;;;;;;;;;;4419895;32;20141;-69
2021/05/17 06:05:51;;;;;;;20.73;11.45;;;;;;;;;;4419703;32;20577;-69
2021/05/17 06:08:17;;;;;;;16.70;10.13;;;;;;;;;;4418353;32;20191;-70
2021/05/17 06:10:42;;;;;;;22.65;10.80;;;;;;;;;;4418165;32;20176;-71
2021/05/17 06:13:07;;;;;;;19.75;10.88;;;;;;;;;;4420060;32;20229;-71
2021/05/17 06:15:33;;;;;;;24.75;10.88;;;;;;;;;;4427476;32;20571;-72
2021/05/17 06:17:58;;;;;;;16.37;10.10;;;;;;;;;;4429326;32;20142;-70
2021/05/17 06:20:23;;;;;;;18.42;9.15;;;;;;;;;;4429074;32;20192;-70
2021/05/17 06:22:50;;;;;;;21.75;10.35;;;;;;;;;;4420950;32;20141;-70
2021/05/17 06:25:15;;;;;;;20.48;10.10;;;;;;;;;;4405299;32;20515;-71
2021/05/17 06:27:41;;;;;;;14.87;8.68;;;;;;;;;;4436472;32;20181;-70
2021/05/17 06:30:08;;;;;;;15.20;8.45;;;;;;;;;;4434091;32;20429;-70
2021/05/17 06:32:35;;;;;;;17.10;9.18;;;;;;;;;;4430200;32;20175;-69
2021/05/17 06:35:01;;;;;;;18.10;7.55;;;;;;;;;;4422356;32;20544;-70
2021/05/17 06:37:26;;;;;;;21.95;8.48;;;;;;;;;;4433735;32;20149;-70
2021/05/17 06:39:51;;;;;;;18.12;7.72;;;;;;;;;;4430205;32;20195;-70
2021/05/17 06:42:18;;;;;;;13.17;7.37;;;;;;;;;;4427229;32;20302;-70
2021/05/17 06:44:43;;;;;;;13.15;6.20;;;;;;;;;;4425690;32;20256;-71
2021/05/17 06:47:10;;;;;;;12.95;7.37;;;;;;;;;;4433737;32;20233;-71
2021/05/17 06:49:35;;;;;;;16.37;7.65;;;;;;;;;;4434180;32;20189;-69
2021/05/17 06:52:00;;;;;;;13.73;7.55;;;;;;;;;;4434966;32;20196;-71
2021/05/17 06:54:29;;;;;;;13.57;6.82;;;;;;;;;;4425136;32;20487;-71
2021/05/17 06:57:17;;;;;;;14.63;7.93;;;;;;;;;;4419925;32;20137;-71
2021/05/17 06:59:48;;;;;;;16.25;7.50;;;;;;;;;;4407847;32;20173;-70
2021/05/17 07:02:22;;;;;;;11.32;6.93;;;;;;;;;;4430802;32;20148;-70
2021/05/17 07:04:49;;;;;;;13.02;5.87;;;;;;;;;;4429560;32;20178;-70
2021/05/17 07:07:22;;;;;;;13.27;6.37;;;;;;;;;;4433093;32;20173;-70
2021/05/17 07:12:31;;;;;;;7.62;5.18;;;;;;;;;;4423849;32;20245;-70
2021/05/17 07:14:59;;;;;;;8.85;5.43;;;;;;;;;;4420579;32;20204;-70
2021/05/17 07:17:24;;;;;;;7.75;5.57;;;;;;;;;;4420733;32;20145;-69
2021/05/17 07:19:49;;;;;;;8.82;5.30;;;;;;;;;;4426572;32;20196;-68
2021/05/17 07:24:59;;;;;;;10.50;5.90;;;;;;;;;;4427763;32;20267;-70
2021/05/17 07:27:24;;;;;;;8.38;4.80;;;;;;;;;;4424761;32;20176;-70
2021/05/17 07:29:51;;;;;;;8.68;5.32;;;;;;;;;;4434745;32;20276;-69
2021/05/17 07:32:16;;;;;;;6.82;5.20;;;;;;;;;;4422377;32;20165;-69
2021/05/17 07:34:41;;;;;;;10.45;6.45;;;;;;;;;;4429370;32;20299;-69
2021/05/17 07:37:06;;;;;;;9.25;5.80;;;;;;;;;;4406998;32;20260;-68
2021/05/17 07:39:32;;;;;;;8.85;5.22;;;;;;;;;;4425237;32;20296;-69
2021/05/17 07:41:57;;;;;;;9.48;5.70;;;;;;;;;;4427621;32;20192;-69
2021/05/17 07:44:23;;;;;;;8.65;5.12;;;;;;;;;;4435297;32;20145;-69
2021/05/17 07:46:48;;;;;;;9.13;5.40;;;;;;;;;;4423236;32;20174;-69
2021/05/17 07:49:15;;;;;;;8.37;5.63;;;;;;;;;;4427983;32;20272;-69
2021/05/17 07:51:43;;;;;;;9.75;6.65;;;;;;;;;;4430973;32;20283;-69
2021/05/17 07:54:09;;;;;;;9.63;5.90;;;;;;;;;;4424318;32;20188;-69
2021/05/17 07:56:34;;;;;;;8.13;6.18;;;;;;;;;;4415869;32;20627;-69
2021/05/17 07:58:59;;;;;;;11.45;5.68;;;;;;;;;;4432289;32;20134;-69
2021/05/17 08:01:25;;;;;;;9.27;5.87;;;;;;;;;;4436820;32;20138;-69
2021/05/17 08:03:50;;;;;;;8.70;5.57;;;;;;;;;;4436316;32;20216;-69
2021/05/17 08:06:16;;;;;;;8.23;5.90;;;;;;;;;;4432154;32;20138;-69
2021/05/17 08:08:41;;;;;;;6.12;5.07;;;;;;;;;;4424220;32;20249;-69
2021/05/17 08:11:06;;;;;;;8.32;5.35;;;;;;;;;;4420996;32;20198;-69
2021/05/17 08:13:31;;;;;;;8.40;5.12;;;;;;;;;;4425105;32;20195;-69
2021/05/17 08:15:56;;;;;;;7.07;5.50;;;;;;;;;;4424373;32;20534;-69
2021/05/17 08:18:22;;;;;;;8.45;5.90;;;;;;;;;;4431170;32;20237;-69
2021/05/17 08:20:48;;;;;;;6.65;5.87;;;;;;;;;;4430397;32;20172;-70
2021/05/17 08:23:19;;;;;;;5.90;5.15;;;;;;;;;;4433326;32;20133;-69
2021/05/17 08:25:45;;;;;;;8.60;5.90;;;;;;;;;;4434857;32;20141;-69
2021/05/17 08:28:10;;;;;;;11.40;6.53;;;;;;;;;;4425187;32;20175;-70
2021/05/17 08:30:43;;;;;;;7.85;5.82;;;;;;;;;;4421449;32;20135;-70
2021/05/17 08:33:09;;;;;;;9.65;7.07;;;;;;;;;;4427888;32;20184;-69
2021/05/17 08:35:35;;;;;;;8.73;6.95;;;;;;;;;;4428510;32;20150;-70
2021/05/17 08:38:00;;;;;;;10.18;7.07;;;;;;;;;;4425729;32;20137;-70
2021/05/17 08:40:26;;;;;;;10.60;7.45;;;;;;;;;;4415364;32;20188;-69
2021/05/17 08:42:52;;;;;;;13.25;8.10;;;;;;;;;;4424422;32;20767;-69
2021/05/17 08:45:17;;;;;;;11.95;7.10;;;;;;;;;;4420716;32;20134;-69
2021/05/17 08:47:43;;;;;;;10.88;7.80;;;;;;;;;;4429897;32;20169;-70
2021/05/17 08:50:08;;;;;;;8.02;6.28;;;;;;;;;;4433910;32;20176;-71
2021/05/17 08:52:33;;;;;;;9.52;6.05;;;;;;;;;;4431042;32;20165;-70
2021/05/17 08:54:59;;;;;;;9.45;5.68;;;;;;;;;;4415335;32;20533;-70
2021/05/17 08:57:24;;;;;;;7.10;5.03;;;;;;;;;;4416208;32;20320;-70
2021/05/17 08:59:50;;;;;;;8.43;5.82;;;;;;;;;;4413646;32;20256;-71
2021/05/17 09:02:15;;;;;;;9.05;6.18;;;;;;;;;;4425412;32;20165;-71
2021/05/17 09:05:00;;;;;;;9.32;5.45;;;;;;;;;;4420372;32;20165;-70
2021/05/17 09:07:33;;;;;;;6.15;4.12;;;;;;;;;;4430071;32;20177;-71
2021/05/17 09:09:59;;;;;;;6.62;4.03;;;;;;;;;;4420797;32;20157;-72
2021/05/17 09:12:24;;;;;;;6.57;4.12;;;;;;;;;;4435802;32;20591;-70
2021/05/17 09:14:55;;;;;;;4.28;3.80;;;;;;;;;;4411200;32;20182;-71
2021/05/17 09:17:20;;;;;;;5.80;4.00;;;;;;;;;;4422617;32;20279;-70
2021/05/17 09:19:46;;;;;;;5.75;4.53;;;;;;;;;;4424369;32;20153;-71
2021/05/17 09:22:15;;;;;;;5.63;4.80;;;;;;;;;;4419994;32;20165;-71
2021/05/17 09:24:50;;;;;;;9.82;5.50;;;;;;;;;;4417988;32;20299;-70
2021/05/17 09:27:26;;;;;;;9.90;5.78;;;;;;;;;;4419288;32;20187;-71
2021/05/17 09:29:52;;;;;;;10.98;6.75;;;;;;;;;;4426069;32;20253;-71
2021/05/17 09:32:20;;;;;;;11.45;7.60;;;;;;;;;;4426482;32;20203;-70
2021/05/17 09:34:46;;;;;;;14.05;7.35;;;;;;;;;;4429448;32;20570;-69
2021/05/17 09:37:12;;;;;;;18.98;10.27;;;;;;;;;;4424035;32;20184;-68
2021/05/17 09:39:46;;;;;;;10.68;7.03;;;;;;;;;;4421457;32;20146;-68
2021/05/17 09:42:12;;;;;;;13.38;5.97;;;;;;;;;;4405787;32;20287;-68
2021/05/17 09:44:40;;;;;;;16.50;8.50;;;;;;;;;;4420435;32;20991;-69
2021/05/17 09:47:14;;;;;;;14.68;7.53;;;;;;;;;;4430784;32;20224;-69
2021/05/17 09:49:50;;;;;;;12.75;9.07;;;;;;;;;;4428864;32;20175;-70
2021/05/17 09:52:24;;;;;;;17.40;11.32;;;;;;;;;;4433664;32;20145;-70
2021/05/17 09:54:51;;;;;;;15.48;11.68;;;;;;;;;;4432240;32;20257;-71
2021/05/17 09:57:17;;;;;;;13.52;10.65;;;;;;;;;;4425614;32;20141;-71
2021/05/17 09:59:43;;;;;;;19.12;11.35;;;;;;;;;;4428245;32;20816;-70
2021/05/17 10:02:08;;;;;;;16.45;10.65;;;;;;;;;;4408720;32;20241;-69
2021/05/17 10:04:33;;;;;;;13.38;9.95;;;;;;;;;;4419793;32;20185;-70
2021/05/17 10:06:58;;;;;;;18.52;11.60;;;;;;;;;;4419573;32;20260;-70
2021/05/17 10:09:24;;;;;;;9.23;6.10;;;;;;;;;;4421513;32;20245;-70
2021/05/17 10:11:49;;;;;;;10.13;6.57;;;;;;;;;;4418985;32;20546;-69
2021/05/17 10:14:14;;;;;;;8.15;5.20;;;;;;;;;;4405782;32;20173;-69
2021/05/17 10:16:41;;;;;;;7.25;5.50;;;;;;;;;;4425738;32;20141;-69
2021/05/17 10:19:08;;;;;;;7.03;5.07;;;;;;;;;;4428003;32;20145;-69
2021/05/17 10:21:33;;;;;;;6.30;4.55;;;;;;;;;;4409248;32;20583;-69
2021/05/17 10:24:01;;;;;;;7.00;5.55;;;;;;;;;;4429649;32;20266;-69
2021/05/17 10:26:29;;;;;;;6.75;5.32;;;;;;;;;;4431447;32;20244;-69
2021/05/17 10:28:55;;;;;;;6.47;4.85;;;;;;;;;;4418438;32;20168;-69
2021/05/17 10:31:22;;;;;;;4.12;3.05;;;;;;;;;;4418100;32;20149;-69
2021/05/17 10:34:07;;;;;;;2.50;2.28;;;;;;;;;;4420270;32;20156;-69
2021/05/17 10:36:49;;;;;;;2.45;2.20;;;;;;;;;;4435955;32;20214;-69
2021/05/17 10:39:15;;;;;;;2.30;2.10;;;;;;;;;;4435002;32;20134;-70
2021/05/17 10:42:03;;;;;;;2.83;2.30;;;;;;;;;;4430954;32;20172;-69
2021/05/17 10:44:42;;;;;;;4.97;2.87;;;;;;;;;;4420288;32;20198;-69
2021/05/17 10:47:07;;;;;;;4.25;2.83;;;;;;;;;;4431619;32;20578;-69
2021/05/17 10:49:33;;;;;;;6.45;3.33;;;;;;;;;;4432890;32;20192;-68
2021/05/17 10:52:06;;;;;;;8.38;4.30;;;;;;;;;;4417600;32;20505;-68
2021/05/17 10:54:38;;;;;;;6.65;3.40;;;;;;;;;;4418760;32;20173;-69
2021/05/17 10:57:15;;;;;;;9.48;3.90;;;;;;;;;;4425181;32;20305;-69
2021/05/17 11:02:28;;;;;;;8.57;5.00;;;;;;;;;;4424304;32;20619;-68
2021/05/17 11:04:58;;;;;;;12.37;5.22;;;;;;;;;;4429470;32;20214;-69
2021/05/17 11:07:25;;;;;;;10.43;4.97;;;;;;;;;;4416274;32;20177;-69
2021/05/17 11:09:50;;;;;;;7.25;5.20;;;;;;;;;;4428650;32;20149;-69
2021/05/17 11:12:18;;;;;;;6.67;5.03;;;;;;;;;;4434524;32;20198;-69
2021/05/17 11:15:02;;;;;;;5.97;3.95;;;;;;;;;;4423054;32;20267;-69
2021/05/17 11:17:28;;;;;;;3.55;2.30;;;;;;;;;;4419956;32;20146;-69
2021/05/17 11:19:54;;;;;;;2.78;1.87;;;;;;;;;;4434844;32;20569;-68
2021/05/17 11:22:20;;;;;;;3.35;2.08;;;;;;;;;;4414271;32;20149;-69
2021/05/17 11:24:46;;;;;;;2.87;1.80;;;;;;;;;;4418843;32;20648;-69
2021/05/17 11:27:11;;;;;;;3.28;2.15;;;;;;;;;;4432510;32;20242;-71
2021/05/17 11:29:37;;;;;;;3.47;1.95;;;;;;;;;;4421631;32;20177;-71
2021/05/17 11:32:09;;;;;;;2.45;1.73;;;;;;;;;;4430611;32;20157;-69
2021/05/17 11:34:55;;;;;;;2.87;1.90;;;;;;;;;;4415851;32;20219;-70
2021/05/17 11:37:20;;;;;;;3.00;1.65;;;;;;;;;;4432591;32;20189;-70
2021/05/17 11:39:45;;;;;;;2.00;1.80;;;;;;;;;;4437240;32;20175;-70
2021/05/17 11:42:11;;;;;;;2.67;2.10;;;;;;;;;;4426548;32;20334;-70
2021/05/17 11:47:18;;;;;;;4.75;2.35;;;;;;;;;;4434524;32;20188;-70
2021/05/17 11:49:44;;;;;;;2.78;2.22;;;;;;;;;;4434287;32;20191;-71
2021/05/17 11:52:10;;;;;;;3.22;2.20;;;;;;;;;;4432899;32;20133;-70
2021/05/17 11:54:37;;;;;;;3.42;2.30;;;;;;;;;;4421248;32;20204;-70
2021/05/17 11:57:03;;;;;;;3.40;2.50;;;;;;;;;;4419473;32;20161;-70
2021/05/17 11:59:29;;;;;;;4.97;4.37;;;;;;;;;;4425098;32;20554;-70
2021/05/17 12:01:56;;;;;;;6.32;4.47;;;;;;;;;;4412509;32;20512;-71
2021/05/17 12:04:25;;;;;;;7.68;4.35;;;;;;;;;;4428739;32;20153;-71
2021/05/17 12:06:55;;;;;;;5.53;3.92;;;;;;;;;;4443076;32;20145;-71
2021/05/17 12:09:31;;;;;;;6.25;4.70;;;;;;;;;;4434177;32;20157;-71
2021/05/17 12:11:56;;;;;;;9.02;4.97;;;;;;;;;;4434547;32;20148;-71
2021/05/17 12:14:21;;;;;;;7.15;5.35;;;;;;;;;;4447790;32;20219;-70
2021/05/17 12:16:58;;;;;;;8.57;4.22;;;;;;;;;;4433749;32;20167;-70
2021/05/17 12:19:23;;;;;;;7.90;4.43;;;;;;;;;;4435561;32;20504;-70
2021/05/17 12:21:49;;;;;;;7.97;4.50;;;;;;;;;;4443437;32;20133;-69
2021/05/17 12:24:28;;;;;;;5.97;4.50;;;;;;;;;;4431977;32;20221;-70
2021/05/17 12:26:59;;;;;;;6.50;4.12;;;;;;;;;;4434920;32;20258;-70
2021/05/17 12:29:25;;;;;;;5.22;3.17;;;;;;;;;;4421131;32;20533;-70
2021/05/17 12:31:50;;;;;;;6.50;3.62;;;;;;;;;;4423524;32;20157;-69
2021/05/17 12:34:15;;;;;;;6.22;3.90;;;;;;;;;;4431131;32;20183;-70
2021/05/17 12:36:42;;;;;;;9.30;4.57;;;;;;;;;;4418250;32;20238;-68
2021/05/17 12:39:13;;;;;;;7.57;4.68;;;;;;;;;;4404279;32;20241;-69
2021/05/17 12:41:39;;;;;;;6.45;5.18;;;;;;;;;;4423984;32;20176;-69
2021/05/17 12:44:24;;;;;;;8.50;5.70;;;;;;;;;;4412909;32;20674;-69
2021/05/17 12:47:02;;;;;;;7.90;5.80;;;;;;;;;;4426054;32;20609;-70
2021/05/17 12:49:48;;;;;;;6.75;5.18;;;;;;;;;;4419265;32;20176;-69
2021/05/17 12:52:31;;;;;;;7.15;5.40;;;;;;;;;;4434852;32;20224;-69
2021/05/17 12:55:07;;;;;;;7.37;4.62;;;;;;;;;;4415349;32;20201;-69
2021/05/17 12:57:40;;;;;;;6.72;4.93;;;;;;;;;;4436923;32;20531;-69
2021/05/17 13:00:06;;;;;;;8.50;5.55;;;;;;;;;;4427019;32;20226;-70
2021/05/17 13:02:31;;;;;;;6.55;4.45;;;;;;;;;;4425443;32;20188;-69
2021/05/17 13:04:56;;;;;;;5.32;3.33;;;;;;;;;;4429273;32;20149;-71
2021/05/17 13:07:21;;;;;;;5.68;3.50;;;;;;;;;;4426391;32;20180;-69
2021/05/17 13:09:53;;;;;;;6.03;3.43;;;;;;;;;;4443923;32;20892;-70
2021/05/17 13:12:18;;;;;;;4.32;3.58;;;;;;;;;;4437937;32;20271;-69
2021/05/17 13:14:44;;;;;;;4.55;2.80;;;;;;;;;;4444199;32;20153;-70
2021/05/17 13:17:09;;;;;;;4.68;2.78;;;;;;;;;;4433417;32;20138;-70
2021/05/17 13:22:32;;;;;;;5.35;3.40;;;;;;;;;;4437247;32;20153;-70
2021/05/17 13:31:05;;;;;;;4.07;3.10;;;;;;;;;;4435654;32;20198;-71
2021/05/17 13:33:30;;;;;;;3.72;2.30;;;;;;;;;;4426463;32;20137;-70
2021/05/17 13:35:57;;;;;;;2.33;1.42;;;;;;;;;;4417728;32;20141;-70
2021/05/17 13:38:23;;;;;;;2.25;1.12;;;;;;;;;;4424482;32;20580;-70
2021/05/17 13:40:48;;;;;;;2.78;1.10;;;;;;;;;;4446039;32;20161;-71
2021/05/17 13:43:14;;;;;;;2.75;1.42;;;;;;;;;;4446865;32;20153;-70
2021/05/17 13:45:39;;;;;;;2.97;1.62;;;;;;;;;;4441914;32;20187;-71
2021/05/17 13:48:04;;;;;;;5.28;3.28;;;;;;;;;;4418975;32;20218;-71
2021/05/17 13:50:30;;;;;;;3.50;2.10;;;;;;;;;;4429006;32;20190;-71
2021/05/17 13:52:55;;;;;;;3.55;2.45;;;;;;;;;;4434314;32;20445;-70
2021/05/17 13:55:20;;;;;;;4.27;2.80;;;;;;;;;;4432757;32;20145;-71
2021/05/17 13:57:45;;;;;;;3.35;2.47;;;;;;;;;;4423301;32;20291;-71
2021/05/17 14:00:11;;;;;;;2.72;1.90;;;;;;;;;;4423186;32;20559;-71
2021/05/17 14:02:36;;;;;;;4.75;1.65;;;;;;;;;;4417354;32;20316;-70
2021/05/17 14:05:02;;;;;;;4.95;2.65;;;;;;;;;;4428920;32;21057;-70
2021/05/17 14:07:27;;;;;;;4.30;2.87;;;;;;;;;;4432210;32;20558;-70
2021/05/17 14:09:53;;;;;;;7.13;3.50;;;;;;;;;;4447701;32;20145;-71
2021/05/17 14:12:18;;;;;;;3.75;2.72;;;;;;;;;;4435389;32;20544;-70
2021/05/17 14:14:43;;;;;;;5.70;2.92;;;;;;;;;;4449399;32;20257;-70
2021/05/17 14:17:09;;;;;;;5.43;3.07;;;;;;;;;;4449169;32;20196;-70
2021/05/17 14:19:35;;;;;;;4.90;3.87;;;;;;;;;;4447726;32;20232;-70
2021/05/17 14:22:00;;;;;;;5.37;4.00;;;;;;;;;;4447550;32;20271;-71
2021/05/17 14:24:27;;;;;;;5.03;2.75;;;;;;;;;;4447432;32;20165;-71
2021/05/17 14:26:52;;;;;;;3.35;2.60;;;;;;;;;;4436072;32;20293;-70
2021/05/17 14:29:17;;;;;;;4.72;2.62;;;;;;;;;;4433718;32;20142;-70
2021/05/17 14:31:44;;;;;;;2.72;2.08;;;;;;;;;;4422604;32;20183;-70
2021/05/17 14:34:09;;;;;;;5.07;2.05;;;;;;;;;;4433219;32;20601;-70
2021/05/17 14:36:35;;;;;;;3.85;1.90;;;;;;;;;;4425265;32;20187;-71
2021/05/17 14:39:00;;;;;;;4.60;2.30;;;;;;;;;;4419380;32;20217;-70
2021/05/17 14:41:26;;;;;;;3.10;1.90;;;;;;;;;;4434335;32;20156;-70
2021/05/17 14:43:51;;;;;;;3.35;2.08;;;;;;;;;;4433078;32;20604;-70
2021/05/17 14:46:16;;;;;;;3.22;2.33;;;;;;;;;;4429263;32;20196;-70
2021/05/17 14:48:46;;;;;;;5.07;2.87;;;;;;;;;;4416357;32;20134;-70
2021/05/17 14:51:11;;;;;;;5.12;3.50;;;;;;;;;;4402366;32;20200;-70
2021/05/17 14:53:37;;;;;;;7.03;4.05;;;;;;;;;;4417251;32;20273;-70
2021/05/17 14:56:02;;;;;;;8.55;5.40;;;;;;;;;;4433095;32;20233;-70
2021/05/17 14:58:27;;;;;;;5.93;5.03;;;;;;;;;;4432769;32;20202;-69
2021/05/17 15:00:53;;;;;;;8.80;4.03;;;;;;;;;;4431820;32;20214;-71
2021/05/17 15:03:18;;;;;;;5.70;4.00;;;;;;;;;;4422277;32;20497;-70